Terminal Aerodrome Forecast
Issued by NWS Twin Cities, MN

Home | Current Version | Previous Version | Graphics & Text | Print | Product List | Glossary On
Versions: 1 2 3 4 5 6 7 8 9 10 11 12 13 14 15 16 17 18 19 20
000
FTUS43 KMPX 052321
TAFSTC
TAF
KSTC 052321Z 0600/0624 13014G21KT P6SM SCT040 OVC060
     FM060500 12010KT P6SM VCSH OVC015
     FM061200 12013G20KT 5SM -RA BR SCT015 BKN025
     FM061800 14012G18KT 4SM -SHRA BR VCTS SCT020 OVC035CB=

USA.gov is the U.S. government's official web portal to all federal, state and local government web resources and services.